createdAt,value
2022-11-16T00:02:13.585Z,18.80
2022-11-16T00:04:42.331Z,16.70
2022-11-16T00:07:11.049Z,17.90
2022-11-16T00:09:39.453Z,18.20
2022-11-16T00:12:10.823Z,17.70
2022-11-16T00:14:39.149Z,18.00
2022-11-16T00:17:07.389Z,18.10
2022-11-16T00:19:35.760Z,17.10
2022-11-16T00:22:04.062Z,17.40
2022-11-16T00:24:32.305Z,16.30
2022-11-16T00:27:00.610Z,17.10
2022-11-16T00:29:28.947Z,17.20
2022-11-16T00:31:57.206Z,18.60
2022-11-16T00:34:26.175Z,16.60
2022-11-16T00:36:54.485Z,17.90
2022-11-16T00:39:22.774Z,16.80
2022-11-16T00:41:51.168Z,16.40
2022-11-16T00:44:19.536Z,18.00
2022-11-16T00:46:47.953Z,17.90
2022-11-16T00:49:16.385Z,14.90
2022-11-16T00:51:44.664Z,16.10
2022-11-16T00:54:13.051Z,16.90
2022-11-16T00:56:41.508Z,16.10
2022-11-16T00:59:09.786Z,17.70
2022-11-16T01:01:38.329Z,17.40
2022-11-16T01:04:07.922Z,17.20
2022-11-16T01:06:37.624Z,17.20
2022-11-16T01:09:05.954Z,18.00
2022-11-16T01:11:52.841Z,17.00
2022-11-16T01:14:21.057Z,17.40
2022-11-16T01:16:50.705Z,16.80
2022-11-16T01:19:19.113Z,16.60
2022-11-16T01:21:47.439Z,17.00
2022-11-16T01:24:15.794Z,16.20
2022-11-16T01:26:44.220Z,17.70
2022-11-16T01:29:13.113Z,17.10
2022-11-16T01:31:45.411Z,17.40
2022-11-16T01:34:13.748Z,18.10
2022-11-16T01:36:41.965Z,18.00
2022-11-16T01:39:13.069Z,17.20
2022-11-16T01:41:49.376Z,16.90
2022-11-16T01:44:34.051Z,17.00
2022-11-16T01:47:11.809Z,18.20
2022-11-16T01:49:46.176Z,18.90
2022-11-16T01:52:24.410Z,18.00
2022-11-16T01:54:54.496Z,17.40
2022-11-16T01:57:33.069Z,17.20
2022-11-16T02:00:12.145Z,16.30
2022-11-16T02:02:46.040Z,16.40
2022-11-16T02:05:50.588Z,16.80
2022-11-16T02:09:16.206Z,17.40
2022-11-16T02:12:19.255Z,13.90
2022-11-16T02:15:04.591Z,15.90
2022-11-16T02:17:58.695Z,15.80
2022-11-16T02:20:40.700Z,16.00
2022-11-16T02:23:43.757Z,15.20
2022-11-16T02:26:31.124Z,15.40
2022-11-16T02:29:18.216Z,17.10
2022-11-16T02:32:09.167Z,15.30
2022-11-16T02:34:50.510Z,15.00
2022-11-16T02:37:22.750Z,16.00
2022-11-16T02:39:56.876Z,14.50
2022-11-16T02:42:35.353Z,15.90
2022-11-16T02:45:08.590Z,15.20
2022-11-16T02:47:39.774Z,15.50
2022-11-16T02:50:18.193Z,16.00
2022-11-16T02:52:46.609Z,14.80
2022-11-16T02:55:15.165Z,15.40
2022-11-16T02:57:59.010Z,15.60
2022-11-16T03:00:51.888Z,15.60
2022-11-16T03:03:48.062Z,15.40
2022-11-16T03:06:24.862Z,15.50
2022-11-16T03:09:18.715Z,16.90
2022-11-16T03:12:00.845Z,15.40
2022-11-16T03:14:59.197Z,15.00
2022-11-16T03:17:34.349Z,14.20
2022-11-16T03:20:11.784Z,15.20
2022-11-16T03:22:42.032Z,14.80
2022-11-16T03:25:12.935Z,15.10
2022-11-16T03:28:07.484Z,15.10
2022-11-16T03:30:42.619Z,15.20
2022-11-16T03:33:19.061Z,15.10
2022-11-16T03:35:56.623Z,15.50
2022-11-16T03:38:27.714Z,14.40
2022-11-16T03:41:06.500Z,13.80
2022-11-16T03:43:36.506Z,14.10
2022-11-16T03:46:06.030Z,15.60
2022-11-16T03:48:36.670Z,15.30
2022-11-16T03:51:10.690Z,15.20
2022-11-16T03:53:39.525Z,16.20
2022-11-16T03:56:08.109Z,14.10
2022-11-16T03:58:36.533Z,13.30
2022-11-16T04:01:05.193Z,13.60
2022-11-16T04:03:33.758Z,15.00
2022-11-16T04:06:20.712Z,13.50
2022-11-16T04:09:28.313Z,13.80
2022-11-16T04:12:15.450Z,14.10
2022-11-16T04:15:03.538Z,14.60
2022-11-16T04:17:51.426Z,15.00
2022-11-16T04:20:38.518Z,15.70
2022-11-16T04:23:32.607Z,15.80
2022-11-16T04:26:01.049Z,14.40
2022-11-16T04:28:35.135Z,15.20
2022-11-16T04:31:41.163Z,15.70
2022-11-16T04:34:30.330Z,16.40
2022-11-16T04:37:17.822Z,15.20
2022-11-16T04:39:46.625Z,15.20
2022-11-16T04:42:22.512Z,15.60
2022-11-16T04:45:11.282Z,14.70
2022-11-16T04:47:45.822Z,16.30
2022-11-16T04:50:14.623Z,15.30
2022-11-16T04:52:43.275Z,20.40
2022-11-16T04:55:13.780Z,16.90
2022-11-16T04:57:42.019Z,14.80
2022-11-16T05:00:11.118Z,16.20
2022-11-16T05:02:40.150Z,13.50
2022-11-16T05:05:09.274Z,14.00
2022-11-16T05:07:38.757Z,15.20
2022-11-16T05:10:13.336Z,15.40
2022-11-16T05:12:41.987Z,15.70
2022-11-16T05:15:11.305Z,14.20
2022-11-16T05:17:40.445Z,13.80
2022-11-16T05:20:31.470Z,14.80
2022-11-16T05:23:03.822Z,13.30
2022-11-16T05:25:36.959Z,14.00
2022-11-16T05:28:07.670Z,14.10
2022-11-16T05:30:39.248Z,13.50
2022-11-16T05:33:07.533Z,14.40
2022-11-16T05:35:39.024Z,13.90
2022-11-16T05:38:08.278Z,16.30
2022-11-16T05:40:40.583Z,18.50
2022-11-16T05:43:08.950Z,15.70
2022-11-16T05:45:40.980Z,15.40
2022-11-16T05:48:09.689Z,16.60
2022-11-16T05:50:42.495Z,17.60
2022-11-16T05:53:16.911Z,15.10
2022-11-16T05:55:45.305Z,14.90
2022-11-16T05:58:13.771Z,16.10
2022-11-16T06:00:42.131Z,15.00
2022-11-16T06:03:10.821Z,14.40
2022-11-16T06:05:40.632Z,14.30
2022-11-16T06:08:10.575Z,15.00
2022-11-16T06:10:38.879Z,15.20
2022-11-16T06:13:07.388Z,15.70
2022-11-16T06:15:39.709Z,14.40
2022-11-16T06:18:08.773Z,15.00
2022-11-16T06:20:39.432Z,15.00
2022-11-16T06:23:08.325Z,14.80
2022-11-16T06:25:39.027Z,15.00
2022-11-16T06:28:08.296Z,13.80
2022-11-16T06:30:39.568Z,13.80
2022-11-16T06:33:09.108Z,14.00
2022-11-16T06:35:38.560Z,14.90
2022-11-16T06:38:07.007Z,12.10
2022-11-16T06:40:35.508Z,14.20
2022-11-16T06:43:04.457Z,13.00
2022-11-16T06:45:32.996Z,13.60
2022-11-16T06:48:01.856Z,14.50
2022-11-16T06:50:30.279Z,12.60
2022-11-16T06:53:01.113Z,12.40
2022-11-16T06:55:30.182Z,14.40
2022-11-16T06:57:58.494Z,16.40
2022-11-16T07:00:28.227Z,14.70
2022-11-16T07:02:57.226Z,15.40
2022-11-16T07:05:25.524Z,14.50
2022-11-16T07:07:56.316Z,14.20
2022-11-16T07:10:26.282Z,12.70
2022-11-16T07:12:55.211Z,14.10
2022-11-16T07:15:24.631Z,12.60
2022-11-16T07:17:53.039Z,13.50
2022-11-16T07:20:21.439Z,13.90
2022-11-16T07:22:49.846Z,10.80
2022-11-16T07:25:18.654Z,12.20
2022-11-16T07:27:47.961Z,12.90
2022-11-16T07:30:16.892Z,12.60
2022-11-16T07:33:04.510Z,11.60
2022-11-16T07:35:51.708Z,13.00
2022-11-16T07:38:20.315Z,13.30
2022-11-16T07:40:48.925Z,13.90
2022-11-16T07:43:19.467Z,11.40
2022-11-16T07:46:45.149Z,11.40
2022-11-16T07:49:17.996Z,12.00
2022-11-16T07:52:10.589Z,12.70
2022-11-16T07:55:05.928Z,13.50
2022-11-16T07:57:35.058Z,12.20
2022-11-16T08:00:07.248Z,13.50
2022-11-16T08:02:41.795Z,13.40
2022-11-16T08:05:11.831Z,11.70
2022-11-16T08:07:40.741Z,12.40
2022-11-16T08:10:09.646Z,13.00
2022-11-16T08:12:37.949Z,13.20
2022-11-16T08:15:07.681Z,13.80
2022-11-16T08:17:36.024Z,15.40
2022-11-16T08:20:05.590Z,14.30
2022-11-16T08:22:33.999Z,13.90
2022-11-16T08:25:03.682Z,13.30
2022-11-16T08:27:33.372Z,12.10
2022-11-16T08:30:04.929Z,12.20
2022-11-16T08:32:33.370Z,12.50
2022-11-16T08:35:02.264Z,14.60
2022-11-16T08:37:32.157Z,13.80
2022-11-16T08:40:00.509Z,12.60
2022-11-16T08:42:29.718Z,13.70
2022-11-16T08:44:58.054Z,14.40
2022-11-16T08:47:26.495Z,14.70
2022-11-16T08:49:57.494Z,15.20
2022-11-16T08:52:27.024Z,14.00
2022-11-16T08:54:55.528Z,14.30
2022-11-16T08:57:23.918Z,14.70
2022-11-16T08:59:55.901Z,12.40
2022-11-16T09:02:25.933Z,13.00
2022-11-16T09:04:54.635Z,14.10
2022-11-16T09:07:23.142Z,14.70
2022-11-16T09:09:51.444Z,14.20
2022-11-16T09:12:20.255Z,15.40
2022-11-16T09:14:48.557Z,16.00
2022-11-16T09:17:21.854Z,15.90
2022-11-16T09:19:51.399Z,14.10
2022-11-16T09:22:19.707Z,15.10
2022-11-16T09:24:48.132Z,14.80
2022-11-16T09:27:17.141Z,14.30
2022-11-16T09:29:45.399Z,13.60
2022-11-16T09:32:13.742Z,13.40
2022-11-16T09:34:42.060Z,13.30
2022-11-16T09:37:10.270Z,13.80
2022-11-16T09:39:38.564Z,14.60
2022-11-16T09:42:31.431Z,13.70
2022-11-16T09:45:08.723Z,13.10
2022-11-16T09:47:54.530Z,12.00
2022-11-16T09:50:34.470Z,12.00
2022-11-16T09:53:34.440Z,11.60
2022-11-16T09:56:07.524Z,12.30
2022-11-16T09:59:06.686Z,13.10
2022-11-16T10:02:15.316Z,13.80
2022-11-16T10:04:56.694Z,15.00
2022-11-16T10:07:46.949Z,16.20
2022-11-16T10:10:52.782Z,14.10
2022-11-16T10:13:48.051Z,14.00
2022-11-16T10:16:45.370Z,14.90
2022-11-16T10:19:27.395Z,14.10
2022-11-16T10:22:28.395Z,14.20
2022-11-16T10:24:58.053Z,14.60
2022-11-16T10:27:51.236Z,13.30
2022-11-16T10:30:21.497Z,12.10
2022-11-16T10:33:10.918Z,13.50
2022-11-16T10:35:45.695Z,12.50
2022-11-16T10:38:17.377Z,11.80
2022-11-16T10:40:51.865Z,11.60
2022-11-16T10:43:30.518Z,12.30
2022-11-16T10:46:23.522Z,12.20
2022-11-16T10:48:54.695Z,13.40
2022-11-16T10:51:23.030Z,12.90
2022-11-16T10:53:53.374Z,12.80
2022-11-16T10:56:39.885Z,14.20
2022-11-16T10:59:42.106Z,12.70
2022-11-16T11:02:33.842Z,14.10
2022-11-16T11:05:23.054Z,14.00
2022-11-16T11:08:04.432Z,13.00
2022-11-16T11:10:39.142Z,13.70
2022-11-16T11:13:08.058Z,13.80
2022-11-16T11:15:40.401Z,13.30
2022-11-16T11:18:19.649Z,11.00
2022-11-16T11:21:13.041Z,14.10
2022-11-16T11:23:47.807Z,13.80
2022-11-16T11:26:25.121Z,13.10
2022-11-16T11:28:53.984Z,12.50
2022-11-16T11:31:34.571Z,13.70
2022-11-16T11:34:15.461Z,13.10
2022-11-16T11:36:52.624Z,12.20
2022-11-16T11:39:21.519Z,12.20
2022-11-16T11:42:03.903Z,13.00
2022-11-16T11:44:50.107Z,11.30
2022-11-16T11:50:28.645Z,13.20
2022-11-16T11:53:07.206Z,11.30
2022-11-16T11:55:35.522Z,11.70
2022-11-16T11:58:06.320Z,11.40
2022-11-16T12:01:20.732Z,11.60
2022-11-16T12:04:29.835Z,12.60
2022-11-16T12:07:22.773Z,11.50
2022-11-16T12:10:13.090Z,11.70
2022-11-16T12:12:55.297Z,11.00
2022-11-16T12:15:23.609Z,11.10
2022-11-16T12:18:07.371Z,12.90
2022-11-16T12:21:00.177Z,13.20
2022-11-16T12:24:22.794Z,12.70
2022-11-16T12:27:14.639Z,11.70
2022-11-16T12:29:53.756Z,11.50
2022-11-16T12:32:48.138Z,11.10
2022-11-16T12:35:37.756Z,11.50
2022-11-16T12:38:37.284Z,12.00
2022-11-16T12:41:27.278Z,10.50
2022-11-16T12:44:30.910Z,10.70
2022-11-16T12:47:11.298Z,11.10
2022-11-16T12:49:52.588Z,9.90
2022-11-16T12:52:39.410Z,10.50
2022-11-16T12:55:34.858Z,11.00
2022-11-16T12:58:14.705Z,11.40
2022-11-16T13:01:02.870Z,11.00
2022-11-16T13:04:01.625Z,12.90
2022-11-16T13:06:39.388Z,15.10
2022-11-16T13:09:10.887Z,12.00
2022-11-16T13:11:57.592Z,11.70
2022-11-16T13:14:33.903Z,11.00
2022-11-16T13:17:04.448Z,10.70
2022-11-16T13:19:37.965Z,12.00
2022-11-16T13:22:22.601Z,12.90
2022-11-16T13:25:19.434Z,12.10
2022-11-16T13:27:54.219Z,12.70
2022-11-16T13:30:29.111Z,12.60
2022-11-16T13:33:30.193Z,13.10
2022-11-16T13:35:58.579Z,12.10
2022-11-16T13:38:59.658Z,11.90
2022-11-16T13:41:41.479Z,13.00
2022-11-16T13:44:20.738Z,13.30
2022-11-16T13:47:04.656Z,13.60
2022-11-16T13:49:49.408Z,13.40
2022-11-16T13:52:23.796Z,12.30
2022-11-16T13:54:55.693Z,13.40
2022-11-16T13:57:34.071Z,14.00
2022-11-16T14:00:02.338Z,13.60
2022-11-16T14:02:38.060Z,14.40
2022-11-16T14:05:12.544Z,13.40
2022-11-16T14:07:48.157Z,13.70
2022-11-16T14:10:35.159Z,14.00
2022-11-16T14:13:44.012Z,13.30
2022-11-16T14:16:15.253Z,14.80
2022-11-16T14:18:58.759Z,15.00
2022-11-16T14:21:50.736Z,15.20
2022-11-16T14:24:29.279Z,14.30
2022-11-16T14:27:03.769Z,13.70
2022-11-16T14:29:56.530Z,14.00
2022-11-16T14:32:39.754Z,15.00
2022-11-16T14:35:26.624Z,15.00
2022-11-16T14:38:07.788Z,15.50
2022-11-16T14:40:46.620Z,17.10
2022-11-16T14:43:28.872Z,14.80
2022-11-16T14:46:01.623Z,16.30
2022-11-16T14:48:31.066Z,16.80
2022-11-16T14:51:16.991Z,15.40
2022-11-16T14:53:50.748Z,14.70
2022-11-16T14:56:19.917Z,14.90
2022-11-16T14:58:53.211Z,14.30
2022-11-16T15:01:25.866Z,16.30
2022-11-16T15:04:02.605Z,15.70
2022-11-16T15:06:39.317Z,15.50
2022-11-16T15:09:13.781Z,16.70
2022-11-16T15:12:01.885Z,15.60
2022-11-16T15:14:33.404Z,15.70
2022-11-16T15:17:01.822Z,15.50
2022-11-16T15:19:30.991Z,16.70
2022-11-16T15:22:01.749Z,18.40
2022-11-16T15:24:32.867Z,19.60
2022-11-16T15:27:11.058Z,20.10
2022-11-16T15:29:39.737Z,17.80
2022-11-16T15:32:15.746Z,16.40
2022-11-16T15:34:49.454Z,16.50
2022-11-16T15:37:30.366Z,17.90
2022-11-16T15:40:00.283Z,17.90
2022-11-16T15:42:28.899Z,19.20
2022-11-16T15:45:01.195Z,19.10
2022-11-16T15:47:30.355Z,16.60
2022-11-16T15:49:58.725Z,17.80
2022-11-16T15:52:50.342Z,15.70
2022-11-16T15:55:29.028Z,16.50
2022-11-16T15:58:26.732Z,16.00
2022-11-16T16:00:56.392Z,18.10
2022-11-16T16:03:31.775Z,18.70
2022-11-16T16:06:01.696Z,17.00
2022-11-16T16:08:34.564Z,16.90
2022-11-16T16:11:06.206Z,16.50
2022-11-16T16:13:57.376Z,17.50
2022-11-16T16:16:32.693Z,18.80
2022-11-16T16:19:09.546Z,19.20
2022-11-16T16:21:45.185Z,16.10
2022-11-16T16:24:39.612Z,16.00
2022-11-16T16:27:19.852Z,14.90
2022-11-16T16:29:50.654Z,16.40
2022-11-16T16:32:28.334Z,15.60
2022-11-16T16:34:59.078Z,17.50
2022-11-16T16:37:29.559Z,18.40
2022-11-16T16:39:58.939Z,18.60
2022-11-16T16:42:27.803Z,18.80
2022-11-16T16:44:59.917Z,20.20
2022-11-16T16:47:28.730Z,20.60
2022-11-16T16:49:57.184Z,20.30
2022-11-16T16:52:25.737Z,21.20
2022-11-16T16:54:54.235Z,19.50
2022-11-16T16:57:22.633Z,22.20
2022-11-16T16:59:51.150Z,21.70
2022-11-16T17:02:19.866Z,19.10
2022-11-16T17:04:48.691Z,19.80
2022-11-16T17:07:17.434Z,20.80
2022-11-16T17:09:46.002Z,19.70
2022-11-16T17:12:14.454Z,19.90
2022-11-16T17:14:43.018Z,18.00
2022-11-16T17:17:11.403Z,19.00
2022-11-16T17:19:39.812Z,16.10
2022-11-16T17:22:08.141Z,16.20
2022-11-16T17:24:36.553Z,16.70
2022-11-16T17:27:05.342Z,15.50
2022-11-16T17:29:33.814Z,16.10
2022-11-16T17:32:02.573Z,15.90
2022-11-16T17:34:32.195Z,16.60
2022-11-16T17:37:00.781Z,16.00
2022-11-16T17:39:29.129Z,17.70
2022-11-16T17:41:57.503Z,17.40
2022-11-16T17:44:26.822Z,16.20
2022-11-16T17:46:55.261Z,16.90
2022-11-16T17:49:23.731Z,17.70
2022-11-16T17:51:52.214Z,17.40
2022-11-16T17:54:20.642Z,16.20
2022-11-16T17:56:49.051Z,17.70
2022-11-16T17:59:17.342Z,16.70
2022-11-16T18:01:45.863Z,16.60
2022-11-16T18:04:14.260Z,16.50
2022-11-16T18:06:42.533Z,19.80
2022-11-16T18:09:11.522Z,18.30
2022-11-16T18:11:39.967Z,20.10
2022-11-16T18:14:09.357Z,19.30
2022-11-16T18:16:37.896Z,20.80
2022-11-16T18:19:06.938Z,19.30
2022-11-16T18:21:40.649Z,20.50
2022-11-16T18:24:09.565Z,21.00
2022-11-16T18:26:39.299Z,20.70
2022-11-16T18:29:12.336Z,22.70
2022-11-16T18:31:40.629Z,25.10
2022-11-16T18:34:08.932Z,26.20
2022-11-16T18:36:37.269Z,27.40
2022-11-16T18:39:05.544Z,25.50
2022-11-16T18:41:34.028Z,26.00
2022-11-16T18:44:03.060Z,26.90
2022-11-16T18:46:32.859Z,27.80
2022-11-16T18:49:01.265Z,27.90
2022-11-16T18:51:30.723Z,25.80
2022-11-16T18:53:58.924Z,26.00
2022-11-16T18:56:27.475Z,25.10
2022-11-16T18:58:55.911Z,24.80
2022-11-16T19:01:26.367Z,25.20
2022-11-16T19:03:56.204Z,24.90
2022-11-16T19:06:24.471Z,26.60
2022-11-16T19:08:59.682Z,27.40
2022-11-16T19:11:28.616Z,31.20
2022-11-16T19:14:00.994Z,35.70
2022-11-16T19:16:29.840Z,35.30
2022-11-16T19:18:58.235Z,33.60
2022-11-16T19:21:26.525Z,33.60
2022-11-16T19:23:56.311Z,29.90
2022-11-16T19:26:27.443Z,30.20
2022-11-16T19:28:56.219Z,29.50
2022-11-16T19:31:30.043Z,27.50
2022-11-16T19:34:02.341Z,29.50
2022-11-16T19:36:32.384Z,27.20
2022-11-16T19:39:00.736Z,26.50
2022-11-16T19:41:29.699Z,27.90
2022-11-16T19:44:00.340Z,25.90
2022-11-16T19:46:31.535Z,28.60
2022-11-16T19:49:00.589Z,28.60
2022-11-16T19:51:31.465Z,29.70
2022-11-16T19:54:01.985Z,29.40
2022-11-16T19:56:30.661Z,28.30
2022-11-16T19:58:59.029Z,29.00
2022-11-16T20:01:29.500Z,28.90
2022-11-16T20:04:03.738Z,28.00
2022-11-16T20:06:34.944Z,28.60
2022-11-16T20:09:09.098Z,29.60
2022-11-16T20:11:39.913Z,30.10
2022-11-16T20:14:10.466Z,29.90
2022-11-16T20:16:41.399Z,33.00
2022-11-16T20:19:10.761Z,35.10
2022-11-16T20:21:41.515Z,40.40
2022-11-16T20:24:12.709Z,39.30
2022-11-16T20:26:48.942Z,41.90
2022-11-16T20:29:18.913Z,44.60
2022-11-16T20:31:47.392Z,42.30
2022-11-16T20:34:17.687Z,39.60
2022-11-16T20:36:47.533Z,35.00
2022-11-16T20:39:17.892Z,34.50
2022-11-16T20:41:47.872Z,33.10
2022-11-16T20:44:23.634Z,32.20
2022-11-16T20:46:54.633Z,33.60
2022-11-16T20:49:22.946Z,35.50
2022-11-16T20:51:51.492Z,32.80
2022-11-16T20:54:19.811Z,31.70
2022-11-16T20:56:51.076Z,29.60
2022-11-16T20:59:19.378Z,29.20
2022-11-16T21:01:49.095Z,26.80
2022-11-16T21:04:17.594Z,28.60
2022-11-16T21:06:45.997Z,27.30
2022-11-16T21:09:22.866Z,28.20
2022-11-16T21:12:10.079Z,26.50
2022-11-16T21:14:38.352Z,28.10
2022-11-16T21:17:06.632Z,27.50
2022-11-16T21:19:34.908Z,26.80
2022-11-16T21:22:03.104Z,25.50
2022-11-16T21:24:32.463Z,25.00
2022-11-16T21:27:00.822Z,26.90
2022-11-16T21:29:29.158Z,27.00
2022-11-16T21:31:57.544Z,26.50
2022-11-16T21:34:28.098Z,26.80
2022-11-16T21:36:56.505Z,26.50
2022-11-16T21:39:25.427Z,24.50
2022-11-16T21:41:53.772Z,25.40
2022-11-16T21:44:22.052Z,25.30
2022-11-16T21:46:50.343Z,26.20
2022-11-16T21:49:18.673Z,26.30
2022-11-16T21:51:47.025Z,26.20
2022-11-16T21:54:15.271Z,24.30
2022-11-16T21:56:43.641Z,26.20
2022-11-16T21:59:11.923Z,25.80
2022-11-16T22:01:59.184Z,28.10
2022-11-16T22:04:47.705Z,29.70
2022-11-16T22:07:35.915Z,28.40
2022-11-16T22:10:09.960Z,27.70
2022-11-16T22:12:38.837Z,27.30
2022-11-16T22:15:07.756Z,28.70
2022-11-16T22:17:36.052Z,27.30
2022-11-16T22:20:04.760Z,27.30
2022-11-16T22:22:32.982Z,28.00
2022-11-16T22:25:01.659Z,28.80
2022-11-16T22:27:30.030Z,28.00
2022-11-16T22:29:58.224Z,26.50
2022-11-16T22:32:26.577Z,28.10
2022-11-16T22:34:54.793Z,30.30
2022-11-16T22:37:22.997Z,28.60
2022-11-16T22:39:51.199Z,25.80
2022-11-16T22:42:19.607Z,28.10
2022-11-16T22:44:47.835Z,28.40
2022-11-16T22:47:16.081Z,29.90
2022-11-16T22:49:44.341Z,29.70
2022-11-16T22:52:12.856Z,29.40
2022-11-16T22:54:41.081Z,30.60
2022-11-16T22:57:09.414Z,29.60
2022-11-16T22:59:37.803Z,26.90
2022-11-16T23:02:06.108Z,29.20
2022-11-16T23:04:34.449Z,28.70
2022-11-16T23:07:02.667Z,28.30
2022-11-16T23:09:32.369Z,30.00
2022-11-16T23:12:19.203Z,30.70
2022-11-16T23:15:06.037Z,29.90
2022-11-16T23:17:34.507Z,29.80
2022-11-16T23:20:21.757Z,30.00
2022-11-16T23:23:08.888Z,29.20
2022-11-16T23:25:56.178Z,28.70
2022-11-16T23:28:24.513Z,28.50
2022-11-16T23:30:52.785Z,28.10
2022-11-16T23:33:40.983Z,30.30
2022-11-16T23:36:09.800Z,29.90
2022-11-16T23:38:38.704Z,29.10
2022-11-16T23:41:26.235Z,29.00
2022-11-16T23:44:00.498Z,30.10
2022-11-16T23:46:31.122Z,28.90
2022-11-16T23:49:01.021Z,29.00
2022-11-16T23:51:29.345Z,31.20
2022-11-16T23:53:57.644Z,30.80
2022-11-16T23:56:27.655Z,31.50
2022-11-16T23:58:57.672Z,30.50
